sensor_id;sensor_type;location;lat;lon;timestamp;P1;durP1;ratioP1;P2;durP2;ratioP2
70253;SDS011;57649;42.968;1.608;2023-08-06T00:01:11;2.72;;;1.10;;
70253;SDS011;57649;42.968;1.608;2023-08-06T00:03:37;4.00;;;1.30;;
70253;SDS011;57649;42.968;1.608;2023-08-06T00:06:02;4.55;;;1.45;;
70253;SDS011;57649;42.968;1.608;2023-08-06T00:08:29;2.00;;;1.08;;
70253;SDS011;57649;42.968;1.608;2023-08-06T00:10:54;2.58;;;1.27;;
70253;SDS011;57649;42.968;1.608;2023-08-06T00:13:20;2.28;;;1.20;;
70253;SDS011;57649;42.968;1.608;2023-08-06T00:15:45;2.47;;;1.08;;
70253;SDS011;57649;42.968;1.608;2023-08-06T00:18:11;2.55;;;1.13;;
70253;SDS011;57649;42.968;1.608;2023-08-06T00:20:38;2.72;;;1.25;;
70253;SDS011;57649;42.968;1.608;2023-08-06T00:23:05;2.20;;;1.17;;
70253;SDS011;57649;42.968;1.608;2023-08-06T00:25:30;2.55;;;1.10;;
70253;SDS011;57649;42.968;1.608;2023-08-06T00:27:55;4.70;;;1.20;;
70253;SDS011;57649;42.968;1.608;2023-08-06T00:30:21;2.72;;;1.17;;
70253;SDS011;57649;42.968;1.608;2023-08-06T00:32:46;2.20;;;1.13;;
70253;SDS011;57649;42.968;1.608;2023-08-06T00:35:12;2.80;;;1.27;;
70253;SDS011;57649;42.968;1.608;2023-08-06T00:37:38;1.70;;;0.90;;
70253;SDS011;57649;42.968;1.608;2023-08-06T00:40:04;2.50;;;1.00;;
70253;SDS011;57649;42.968;1.608;2023-08-06T00:42:30;5.43;;;1.17;;
70253;SDS011;57649;42.968;1.608;2023-08-06T00:44:56;2.28;;;1.00;;
70253;SDS011;57649;42.968;1.608;2023-08-06T00:47:21;2.78;;;0.95;;
70253;SDS011;57649;42.968;1.608;2023-08-06T00:49:47;3.60;;;1.08;;
70253;SDS011;57649;42.968;1.608;2023-08-06T00:52:13;2.22;;;0.93;;
70253;SDS011;57649;42.968;1.608;2023-08-06T00:54:39;3.08;;;1.23;;
70253;SDS011;57649;42.968;1.608;2023-08-06T00:57:04;2.10;;;1.10;;
70253;SDS011;57649;42.968;1.608;2023-08-06T00:59:34;2.33;;;1.05;;
70253;SDS011;57649;42.968;1.608;2023-08-06T01:01:59;1.90;;;1.00;;
70253;SDS011;57649;42.968;1.608;2023-08-06T01:04:25;1.92;;;1.10;;
70253;SDS011;57649;42.968;1.608;2023-08-06T01:07:02;1.73;;;1.00;;
70253;SDS011;57649;42.968;1.608;2023-08-06T01:17:36;1.40;;;0.80;;
70253;SDS011;57649;42.968;1.608;2023-08-06T01:20:01;3.03;;;1.02;;
70253;SDS011;57649;42.968;1.608;2023-08-06T01:22:27;1.90;;;0.85;;
70253;SDS011;57649;42.968;1.608;2023-08-06T01:24:52;2.72;;;0.90;;
70253;SDS011;57649;42.968;1.608;2023-08-06T01:30:02;1.70;;;0.90;;
70253;SDS011;57649;42.968;1.608;2023-08-06T01:32:33;3.67;;;0.98;;
70253;SDS011;57649;42.968;1.608;2023-08-06T01:35:00;1.45;;;1.10;;
70253;SDS011;57649;42.968;1.608;2023-08-06T01:37:28;1.88;;;1.15;;
70253;SDS011;57649;42.968;1.608;2023-08-06T01:39:55;3.58;;;1.20;;
70253;SDS011;57649;42.968;1.608;2023-08-06T01:42:20;3.10;;;1.30;;
70253;SDS011;57649;42.968;1.608;2023-08-06T01:44:45;2.92;;;1.20;;
70253;SDS011;57649;42.968;1.608;2023-08-06T01:47:11;2.78;;;1.30;;
70253;SDS011;57649;42.968;1.608;2023-08-06T01:49:36;3.05;;;1.10;;
70253;SDS011;57649;42.968;1.608;2023-08-06T01:52:02;2.50;;;1.10;;
70253;SDS011;57649;42.968;1.608;2023-08-06T01:54:27;2.28;;;1.20;;
70253;SDS011;57649;42.968;1.608;2023-08-06T01:56:53;3.03;;;1.10;;
70253;SDS011;57649;42.968;1.608;2023-08-06T01:59:18;1.67;;;1.00;;
70253;SDS011;57649;42.968;1.608;2023-08-06T02:01:44;2.15;;;1.23;;
70253;SDS011;57649;42.968;1.608;2023-08-06T02:04:10;2.13;;;1.02;;
70253;SDS011;57649;42.968;1.608;2023-08-06T02:06:35;2.67;;;1.20;;
70253;SDS011;57649;42.968;1.608;2023-08-06T02:09:00;1.88;;;1.15;;
70253;SDS011;57649;42.968;1.608;2023-08-06T02:11:26;1.92;;;1.15;;
70253;SDS011;57649;42.968;1.608;2023-08-06T02:13:51;1.88;;;1.23;;
70253;SDS011;57649;42.968;1.608;2023-08-06T02:16:17;1.55;;;1.00;;
70253;SDS011;57649;42.968;1.608;2023-08-06T02:18:42;2.05;;;1.05;;
70253;SDS011;57649;42.968;1.608;2023-08-06T02:21:07;1.63;;;1.00;;
70253;SDS011;57649;42.968;1.608;2023-08-06T02:23:33;2.10;;;1.00;;
70253;SDS011;57649;42.968;1.608;2023-08-06T02:25:59;2.95;;;1.25;;
70253;SDS011;57649;42.968;1.608;2023-08-06T02:28:31;1.65;;;1.10;;
70253;SDS011;57649;42.968;1.608;2023-08-06T02:30:57;3.20;;;1.30;;
70253;SDS011;57649;42.968;1.608;2023-08-06T02:33:23;2.17;;;1.10;;
70253;SDS011;57649;42.968;1.608;2023-08-06T02:35:49;2.67;;;1.20;;
70253;SDS011;57649;42.968;1.608;2023-08-06T02:38:14;1.90;;;1.10;;
70253;SDS011;57649;42.968;1.608;2023-08-06T02:40:45;2.28;;;0.95;;
70253;SDS011;57649;42.968;1.608;2023-08-06T02:43:11;2.47;;;0.98;;
70253;SDS011;57649;42.968;1.608;2023-08-06T02:45:38;1.45;;;0.95;;
70253;SDS011;57649;42.968;1.608;2023-08-06T02:48:03;1.73;;;0.70;;
70253;SDS011;57649;42.968;1.608;2023-08-06T02:50:29;1.00;;;0.80;;
70253;SDS011;57649;42.968;1.608;2023-08-06T02:52:54;1.00;;;0.60;;
70253;SDS011;57649;42.968;1.608;2023-08-06T02:55:19;1.23;;;0.77;;
70253;SDS011;57649;42.968;1.608;2023-08-06T02:57:45;2.90;;;1.10;;
70253;SDS011;57649;42.968;1.608;2023-08-06T03:00:10;1.30;;;0.80;;
70253;SDS011;57649;42.968;1.608;2023-08-06T03:02:36;2.42;;;0.90;;
70253;SDS011;57649;42.968;1.608;2023-08-06T03:05:02;1.08;;;0.90;;
70253;SDS011;57649;42.968;1.608;2023-08-06T03:07:28;2.80;;;1.02;;
70253;SDS011;57649;42.968;1.608;2023-08-06T03:09:54;2.72;;;1.15;;
70253;SDS011;57649;42.968;1.608;2023-08-06T03:12:19;3.42;;;0.77;;
70253;SDS011;57649;42.968;1.608;2023-08-06T03:14:45;1.55;;;0.90;;
70253;SDS011;57649;42.968;1.608;2023-08-06T03:17:10;1.95;;;1.00;;
70253;SDS011;57649;42.968;1.608;2023-08-06T03:19:36;1.10;;;0.70;;
70253;SDS011;57649;42.968;1.608;2023-08-06T03:22:01;1.20;;;0.82;;
70253;SDS011;57649;42.968;1.608;2023-08-06T03:24:26;1.75;;;1.33;;
70253;SDS011;57649;42.968;1.608;2023-08-06T03:26:52;1.20;;;0.80;;
70253;SDS011;57649;42.968;1.608;2023-08-06T03:29:17;3.28;;;1.05;;
70253;SDS011;57649;42.968;1.608;2023-08-06T03:31:43;1.33;;;0.88;;
70253;SDS011;57649;42.968;1.608;2023-08-06T03:34:08;2.72;;;1.00;;
70253;SDS011;57649;42.968;1.608;2023-08-06T03:36:33;3.10;;;1.30;;
70253;SDS011;57649;42.968;1.608;2023-08-06T03:38:59;5.15;;;1.58;;
70253;SDS011;57649;42.968;1.608;2023-08-06T03:41:24;2.55;;;1.30;;
70253;SDS011;57649;42.968;1.608;2023-08-06T03:43:49;4.15;;;2.05;;
70253;SDS011;57649;42.968;1.608;2023-08-06T03:46:15;3.40;;;1.40;;
70253;SDS011;57649;42.968;1.608;2023-08-06T03:48:40;5.40;;;1.75;;
70253;SDS011;57649;42.968;1.608;2023-08-06T03:51:05;3.75;;;1.77;;
70253;SDS011;57649;42.968;1.608;2023-08-06T03:53:31;3.20;;;2.20;;
70253;SDS011;57649;42.968;1.608;2023-08-06T03:55:56;7.50;;;2.00;;
70253;SDS011;57649;42.968;1.608;2023-08-06T03:58:25;8.80;;;2.00;;
70253;SDS011;57649;42.968;1.608;2023-08-06T04:00:58;4.88;;;1.83;;
70253;SDS011;57649;42.968;1.608;2023-08-06T04:03:27;4.65;;;1.85;;
70253;SDS011;57649;42.968;1.608;2023-08-06T04:05:53;4.75;;;1.80;;
70253;SDS011;57649;42.968;1.608;2023-08-06T04:08:19;7.72;;;2.30;;
70253;SDS011;57649;42.968;1.608;2023-08-06T04:10:44;7.80;;;1.98;;
70253;SDS011;57649;42.968;1.608;2023-08-06T04:13:10;5.55;;;1.70;;
70253;SDS011;57649;42.968;1.608;2023-08-06T04:15:35;4.15;;;2.08;;
70253;SDS011;57649;42.968;1.608;2023-08-06T04:18:00;6.82;;;2.10;;
70253;SDS011;57649;42.968;1.608;2023-08-06T04:20:26;7.95;;;1.92;;
70253;SDS011;57649;42.968;1.608;2023-08-06T04:22:53;4.90;;;2.28;;
70253;SDS011;57649;42.968;1.608;2023-08-06T04:25:19;5.35;;;2.05;;
70253;SDS011;57649;42.968;1.608;2023-08-06T04:27:49;5.68;;;2.13;;
70253;SDS011;57649;42.968;1.608;2023-08-06T04:30:14;7.80;;;2.08;;
70253;SDS011;57649;42.968;1.608;2023-08-06T04:32:40;7.07;;;2.15;;
70253;SDS011;57649;42.968;1.608;2023-08-06T04:35:06;4.00;;;2.00;;
70253;SDS011;57649;42.968;1.608;2023-08-06T04:37:32;10.15;;;2.88;;
70253;SDS011;57649;42.968;1.608;2023-08-06T04:39:57;7.93;;;2.42;;
70253;SDS011;57649;42.968;1.608;2023-08-06T04:42:23;8.15;;;2.28;;
70253;SDS011;57649;42.968;1.608;2023-08-06T04:44:48;6.53;;;2.05;;
70253;SDS011;57649;42.968;1.608;2023-08-06T04:47:14;6.80;;;2.08;;
70253;SDS011;57649;42.968;1.608;2023-08-06T04:49:39;7.00;;;2.13;;
70253;SDS011;57649;42.968;1.608;2023-08-06T04:52:04;9.45;;;2.00;;
70253;SDS011;57649;42.968;1.608;2023-08-06T04:54:30;7.70;;;1.77;;
70253;SDS011;57649;42.968;1.608;2023-08-06T04:56:56;8.02;;;2.38;;
70253;SDS011;57649;42.968;1.608;2023-08-06T04:59:21;10.35;;;2.22;;
70253;SDS011;57649;42.968;1.608;2023-08-06T05:01:46;9.50;;;2.05;;
70253;SDS011;57649;42.968;1.608;2023-08-06T05:04:12;8.13;;;2.63;;
70253;SDS011;57649;42.968;1.608;2023-08-06T05:06:37;8.90;;;2.80;;
70253;SDS011;57649;42.968;1.608;2023-08-06T05:09:06;11.55;;;2.53;;
70253;SDS011;57649;42.968;1.608;2023-08-06T05:11:31;11.73;;;3.00;;
70253;SDS011;57649;42.968;1.608;2023-08-06T05:13:57;9.50;;;3.15;;
70253;SDS011;57649;42.968;1.608;2023-08-06T05:16:22;10.43;;;3.08;;
70253;SDS011;57649;42.968;1.608;2023-08-06T05:18:48;10.10;;;3.05;;
70253;SDS011;57649;42.968;1.608;2023-08-06T05:21:14;7.88;;;2.50;;
70253;SDS011;57649;42.968;1.608;2023-08-06T05:23:41;11.15;;;2.78;;
70253;SDS011;57649;42.968;1.608;2023-08-06T05:26:07;9.07;;;3.08;;
70253;SDS011;57649;42.968;1.608;2023-08-06T05:28:32;9.38;;;2.63;;
70253;SDS011;57649;42.968;1.608;2023-08-06T05:30:57;13.68;;;2.35;;
70253;SDS011;57649;42.968;1.608;2023-08-06T05:33:23;7.13;;;2.28;;
70253;SDS011;57649;42.968;1.608;2023-08-06T05:35:49;10.02;;;3.38;;
70253;SDS011;57649;42.968;1.608;2023-08-06T05:38:16;9.05;;;2.40;;
70253;SDS011;57649;42.968;1.608;2023-08-06T05:40:42;11.00;;;2.88;;
70253;SDS011;57649;42.968;1.608;2023-08-06T05:43:08;10.23;;;2.45;;
70253;SDS011;57649;42.968;1.608;2023-08-06T05:45:33;7.95;;;3.20;;
70253;SDS011;57649;42.968;1.608;2023-08-06T05:47:58;14.18;;;3.35;;
70253;SDS011;57649;42.968;1.608;2023-08-06T05:50:24;12.90;;;2.58;;
70253;SDS011;57649;42.968;1.608;2023-08-06T05:52:50;8.25;;;2.70;;
70253;SDS011;57649;42.968;1.608;2023-08-06T05:55:15;11.10;;;2.60;;
70253;SDS011;57649;42.968;1.608;2023-08-06T05:57:40;12.48;;;3.15;;
70253;SDS011;57649;42.968;1.608;2023-08-06T06:00:06;10.25;;;2.72;;
70253;SDS011;57649;42.968;1.608;2023-08-06T06:02:32;14.25;;;3.25;;
70253;SDS011;57649;42.968;1.608;2023-08-06T06:04:58;9.10;;;2.42;;
70253;SDS011;57649;42.968;1.608;2023-08-06T06:07:23;7.68;;;2.13;;
70253;SDS011;57649;42.968;1.608;2023-08-06T06:09:48;7.82;;;1.88;;
70253;SDS011;57649;42.968;1.608;2023-08-06T06:12:14;8.60;;;2.25;;
70253;SDS011;57649;42.968;1.608;2023-08-06T06:14:39;9.88;;;2.40;;
70253;SDS011;57649;42.968;1.608;2023-08-06T06:17:04;13.43;;;2.33;;
70253;SDS011;57649;42.968;1.608;2023-08-06T06:19:30;6.60;;;2.10;;
70253;SDS011;57649;42.968;1.608;2023-08-06T06:21:55;11.63;;;2.45;;
70253;SDS011;57649;42.968;1.608;2023-08-06T06:24:22;12.77;;;3.53;;
70253;SDS011;57649;42.968;1.608;2023-08-06T06:26:48;12.38;;;3.03;;
70253;SDS011;57649;42.968;1.608;2023-08-06T06:29:13;11.63;;;3.05;;
70253;SDS011;57649;42.968;1.608;2023-08-06T06:31:38;13.70;;;2.78;;
70253;SDS011;57649;42.968;1.608;2023-08-06T06:34:04;8.32;;;2.45;;
70253;SDS011;57649;42.968;1.608;2023-08-06T06:36:29;10.77;;;2.80;;
70253;SDS011;57649;42.968;1.608;2023-08-06T06:38:55;10.82;;;2.15;;
70253;SDS011;57649;42.968;1.608;2023-08-06T06:41:20;8.88;;;3.25;;
70253;SDS011;57649;42.968;1.608;2023-08-06T06:43:45;11.25;;;2.00;;
70253;SDS011;57649;42.968;1.608;2023-08-06T06:46:11;10.55;;;2.38;;
70253;SDS011;57649;42.968;1.608;2023-08-06T06:48:36;8.77;;;2.30;;
70253;SDS011;57649;42.968;1.608;2023-08-06T06:51:02;11.63;;;2.88;;
70253;SDS011;57649;42.968;1.608;2023-08-06T06:53:28;6.95;;;2.00;;
70253;SDS011;57649;42.968;1.608;2023-08-06T06:55:56;10.55;;;2.30;;
70253;SDS011;57649;42.968;1.608;2023-08-06T06:58:27;13.73;;;3.50;;
70253;SDS011;57649;42.968;1.608;2023-08-06T07:00:52;11.65;;;2.78;;
70253;SDS011;57649;42.968;1.608;2023-08-06T07:03:19;10.25;;;2.47;;
70253;SDS011;57649;42.968;1.608;2023-08-06T07:05:45;11.43;;;2.20;;
70253;SDS011;57649;42.968;1.608;2023-08-06T07:08:10;13.90;;;2.60;;
70253;SDS011;57649;42.968;1.608;2023-08-06T07:10:36;8.52;;;2.00;;
70253;SDS011;57649;42.968;1.608;2023-08-06T07:13:02;11.45;;;2.42;;
70253;SDS011;57649;42.968;1.608;2023-08-06T07:15:27;10.40;;;1.50;;
70253;SDS011;57649;42.968;1.608;2023-08-06T07:17:52;12.18;;;2.35;;
70253;SDS011;57649;42.968;1.608;2023-08-06T07:20:18;13.27;;;2.42;;
70253;SDS011;57649;42.968;1.608;2023-08-06T07:22:44;7.78;;;2.60;;
70253;SDS011;57649;42.968;1.608;2023-08-06T07:25:10;8.68;;;2.15;;
70253;SDS011;57649;42.968;1.608;2023-08-06T07:27:35;8.68;;;1.73;;
70253;SDS011;57649;42.968;1.608;2023-08-06T07:30:01;8.55;;;2.00;;
70253;SDS011;57649;42.968;1.608;2023-08-06T07:32:26;11.70;;;1.90;;
70253;SDS011;57649;42.968;1.608;2023-08-06T07:34:53;10.88;;;2.55;;
70253;SDS011;57649;42.968;1.608;2023-08-06T07:37:22;10.43;;;2.05;;
70253;SDS011;57649;42.968;1.608;2023-08-06T07:39:48;10.77;;;2.38;;
70253;SDS011;57649;42.968;1.608;2023-08-06T07:42:13;7.78;;;2.10;;
70253;SDS011;57649;42.968;1.608;2023-08-06T07:44:38;10.27;;;2.28;;
70253;SDS011;57649;42.968;1.608;2023-08-06T07:47:04;10.90;;;2.15;;
70253;SDS011;57649;42.968;1.608;2023-08-06T07:49:30;10.43;;;2.08;;
70253;SDS011;57649;42.968;1.608;2023-08-06T07:51:55;9.55;;;2.50;;
70253;SDS011;57649;42.968;1.608;2023-08-06T07:54:20;8.75;;;2.10;;
70253;SDS011;57649;42.968;1.608;2023-08-06T07:56:46;11.60;;;2.03;;
70253;SDS011;57649;42.968;1.608;2023-08-06T07:59:12;11.88;;;3.08;;
70253;SDS011;57649;42.968;1.608;2023-08-06T08:01:37;11.60;;;2.17;;
70253;SDS011;57649;42.968;1.608;2023-08-06T08:04:03;11.82;;;2.03;;
70253;SDS011;57649;42.968;1.608;2023-08-06T08:06:29;9.90;;;2.08;;
70253;SDS011;57649;42.968;1.608;2023-08-06T08:08:55;8.68;;;2.22;;
70253;SDS011;57649;42.968;1.608;2023-08-06T08:11:20;7.05;;;1.70;;
70253;SDS011;57649;42.968;1.608;2023-08-06T08:13:46;11.43;;;2.35;;
70253;SDS011;57649;42.968;1.608;2023-08-06T08:16:11;9.05;;;3.05;;
70253;SDS011;57649;42.968;1.608;2023-08-06T08:18:36;9.20;;;1.70;;
70253;SDS011;57649;42.968;1.608;2023-08-06T08:21:02;8.07;;;2.15;;
70253;SDS011;57649;42.968;1.608;2023-08-06T08:23:27;9.68;;;2.03;;
70253;SDS011;57649;42.968;1.608;2023-08-06T08:25:53;11.07;;;2.20;;
70253;SDS011;57649;42.968;1.608;2023-08-06T08:28:19;11.43;;;1.90;;
70253;SDS011;57649;42.968;1.608;2023-08-06T08:30:44;8.63;;;2.10;;
70253;SDS011;57649;42.968;1.608;2023-08-06T08:33:09;9.70;;;2.58;;
70253;SDS011;57649;42.968;1.608;2023-08-06T08:35:35;13.30;;;2.17;;
70253;SDS011;57649;42.968;1.608;2023-08-06T08:38:01;7.43;;;1.50;;
70253;SDS011;57649;42.968;1.608;2023-08-06T08:40:28;9.18;;;2.85;;
70253;SDS011;57649;42.968;1.608;2023-08-06T08:45:22;10.23;;;1.98;;
70253;SDS011;57649;42.968;1.608;2023-08-06T08:47:53;11.27;;;2.03;;
70253;SDS011;57649;42.968;1.608;2023-08-06T08:50:18;7.82;;;2.28;;
70253;SDS011;57649;42.968;1.608;2023-08-06T08:52:45;9.95;;;2.28;;
70253;SDS011;57649;42.968;1.608;2023-08-06T08:55:11;9.77;;;2.60;;
70253;SDS011;57649;42.968;1.608;2023-08-06T08:57:39;9.25;;;1.83;;
70253;SDS011;57649;42.968;1.608;2023-08-06T09:00:04;6.35;;;1.88;;
70253;SDS011;57649;42.968;1.608;2023-08-06T09:02:30;7.68;;;2.75;;
70253;SDS011;57649;42.968;1.608;2023-08-06T09:04:58;8.85;;;1.98;;
70253;SDS011;57649;42.968;1.608;2023-08-06T09:07:27;7.68;;;1.92;;
70253;SDS011;57649;42.968;1.608;2023-08-06T09:09:56;8.15;;;1.35;;
70253;SDS011;57649;42.968;1.608;2023-08-06T09:12:25;11.47;;;2.47;;
70253;SDS011;57649;42.968;1.608;2023-08-06T09:14:51;8.38;;;2.13;;
70253;SDS011;57649;42.968;1.608;2023-08-06T09:17:17;11.00;;;1.75;;
70253;SDS011;57649;42.968;1.608;2023-08-06T09:19:45;13.45;;;2.08;;
70253;SDS011;57649;42.968;1.608;2023-08-06T09:22:12;8.75;;;1.70;;
70253;SDS011;57649;42.968;1.608;2023-08-06T09:24:39;7.50;;;1.80;;
70253;SDS011;57649;42.968;1.608;2023-08-06T09:27:10;7.55;;;1.80;;
70253;SDS011;57649;42.968;1.608;2023-08-06T09:29:39;8.90;;;1.80;;
70253;SDS011;57649;42.968;1.608;2023-08-06T09:32:10;9.52;;;2.20;;
70253;SDS011;57649;42.968;1.608;2023-08-06T09:34:38;6.70;;;1.52;;
70253;SDS011;57649;42.968;1.608;2023-08-06T09:37:04;6.43;;;1.75;;
70253;SDS011;57649;42.968;1.608;2023-08-06T09:39:30;9.25;;;2.03;;
70253;SDS011;57649;42.968;1.608;2023-08-06T09:41:56;5.75;;;1.30;;
70253;SDS011;57649;42.968;1.608;2023-08-06T09:44:24;12.02;;;1.90;;
70253;SDS011;57649;42.968;1.608;2023-08-06T09:49:20;5.55;;;1.63;;
70253;SDS011;57649;42.968;1.608;2023-08-06T09:51:53;9.27;;;1.70;;
70253;SDS011;57649;42.968;1.608;2023-08-06T09:54:23;10.52;;;2.22;;
70253;SDS011;57649;42.968;1.608;2023-08-06T09:56:49;6.70;;;1.77;;
70253;SDS011;57649;42.968;1.608;2023-08-06T09:59:15;8.13;;;1.80;;
70253;SDS011;57649;42.968;1.608;2023-08-06T10:01:42;8.60;;;1.90;;
70253;SDS011;57649;42.968;1.608;2023-08-06T10:04:08;7.80;;;1.52;;
70253;SDS011;57649;42.968;1.608;2023-08-06T10:06:35;10.35;;;2.42;;
70253;SDS011;57649;42.968;1.608;2023-08-06T10:09:02;8.18;;;2.38;;
70253;SDS011;57649;42.968;1.608;2023-08-06T10:11:27;9.60;;;2.25;;
70253;SDS011;57649;42.968;1.608;2023-08-06T10:13:56;9.35;;;1.92;;
70253;SDS011;57649;42.968;1.608;2023-08-06T10:16:28;6.38;;;1.67;;
70253;SDS011;57649;42.968;1.608;2023-08-06T10:18:54;9.80;;;2.03;;
70253;SDS011;57649;42.968;1.608;2023-08-06T10:21:20;9.43;;;1.88;;
70253;SDS011;57649;42.968;1.608;2023-08-06T10:23:53;7.37;;;2.40;;
70253;SDS011;57649;42.968;1.608;2023-08-06T10:26:19;6.90;;;1.60;;
70253;SDS011;57649;42.968;1.608;2023-08-06T10:28:45;9.50;;;1.70;;
70253;SDS011;57649;42.968;1.608;2023-08-06T10:31:10;8.20;;;2.30;;
70253;SDS011;57649;42.968;1.608;2023-08-06T10:33:45;7.93;;;2.47;;
70253;SDS011;57649;42.968;1.608;2023-08-06T10:36:12;9.55;;;1.55;;
70253;SDS011;57649;42.968;1.608;2023-08-06T10:38:45;7.72;;;1.70;;
70253;SDS011;57649;42.968;1.608;2023-08-06T10:41:30;5.88;;;1.50;;
70253;SDS011;57649;42.968;1.608;2023-08-06T10:44:09;10.50;;;2.13;;
70253;SDS011;57649;42.968;1.608;2023-08-06T10:46:35;8.02;;;1.77;;
70253;SDS011;57649;42.968;1.608;2023-08-06T10:49:01;9.77;;;2.33;;
70253;SDS011;57649;42.968;1.608;2023-08-06T10:51:28;7.95;;;1.70;;
70253;SDS011;57649;42.968;1.608;2023-08-06T10:53:53;6.00;;;1.65;;
70253;SDS011;57649;42.968;1.608;2023-08-06T10:56:20;5.47;;;1.48;;
70253;SDS011;57649;42.968;1.608;2023-08-06T10:58:51;8.27;;;1.90;;
70253;SDS011;57649;42.968;1.608;2023-08-06T11:01:18;6.88;;;1.95;;
70253;SDS011;57649;42.968;1.608;2023-08-06T11:03:45;10.38;;;1.80;;
70253;SDS011;57649;42.968;1.608;2023-08-06T11:06:16;8.05;;;2.05;;
70253;SDS011;57649;42.968;1.608;2023-08-06T11:08:47;7.57;;;2.00;;
70253;SDS011;57649;42.968;1.608;2023-08-06T11:13:40;9.93;;;2.45;;
70253;SDS011;57649;42.968;1.608;2023-08-06T11:16:06;5.60;;;1.33;;
70253;SDS011;57649;42.968;1.608;2023-08-06T11:18:34;6.00;;;1.70;;
70253;SDS011;57649;42.968;1.608;2023-08-06T11:21:00;7.82;;;1.40;;
70253;SDS011;57649;42.968;1.608;2023-08-06T11:23:29;6.63;;;1.88;;
70253;SDS011;57649;42.968;1.608;2023-08-06T11:25:55;7.25;;;1.60;;
70253;SDS011;57649;42.968;1.608;2023-08-06T11:28:21;10.07;;;1.63;;
70253;SDS011;57649;42.968;1.608;2023-08-06T11:30:47;5.55;;;1.63;;
70253;SDS011;57649;42.968;1.608;2023-08-06T11:33:13;8.43;;;2.38;;
70253;SDS011;57649;42.968;1.608;2023-08-06T11:35:39;4.72;;;1.63;;
70253;SDS011;57649;42.968;1.608;2023-08-06T11:38:05;8.20;;;1.75;;
70253;SDS011;57649;42.968;1.608;2023-08-06T11:40:31;7.05;;;2.17;;
70253;SDS011;57649;42.968;1.608;2023-08-06T11:42:57;7.57;;;1.92;;
70253;SDS011;57649;42.968;1.608;2023-08-06T11:45:26;9.43;;;2.00;;
70253;SDS011;57649;42.968;1.608;2023-08-06T11:47:52;10.80;;;2.23;;
70253;SDS011;57649;42.968;1.608;2023-08-06T11:50:27;6.53;;;1.85;;
70253;SDS011;57649;42.968;1.608;2023-08-06T11:53:00;6.65;;;1.98;;
70253;SDS011;57649;42.968;1.608;2023-08-06T11:55:26;5.35;;;1.90;;
70253;SDS011;57649;42.968;1.608;2023-08-06T11:57:53;4.75;;;1.70;;
70253;SDS011;57649;42.968;1.608;2023-08-06T12:00:19;7.05;;;1.95;;
70253;SDS011;57649;42.968;1.608;2023-08-06T12:02:47;9.50;;;1.98;;
70253;SDS011;57649;42.968;1.608;2023-08-06T12:05:18;5.82;;;1.92;;
70253;SDS011;57649;42.968;1.608;2023-08-06T12:07:54;8.52;;;2.40;;
70253;SDS011;57649;42.968;1.608;2023-08-06T12:10:22;6.47;;;2.25;;
70253;SDS011;57649;42.968;1.608;2023-08-06T12:12:49;9.35;;;1.83;;
70253;SDS011;57649;42.968;1.608;2023-08-06T12:15:15;6.80;;;1.60;;
70253;SDS011;57649;42.968;1.608;2023-08-06T12:17:41;5.95;;;1.80;;
70253;SDS011;57649;42.968;1.608;2023-08-06T12:20:06;8.73;;;1.85;;
70253;SDS011;57649;42.968;1.608;2023-08-06T12:22:33;9.98;;;1.98;;
70253;SDS011;57649;42.968;1.608;2023-08-06T12:25:03;7.63;;;1.95;;
70253;SDS011;57649;42.968;1.608;2023-08-06T12:27:36;10.15;;;2.15;;
70253;SDS011;57649;42.968;1.608;2023-08-06T12:30:02;5.90;;;1.50;;
70253;SDS011;57649;42.968;1.608;2023-08-06T12:32:28;8.65;;;1.83;;
70253;SDS011;57649;42.968;1.608;2023-08-06T12:34:54;5.80;;;1.80;;
70253;SDS011;57649;42.968;1.608;2023-08-06T12:37:19;8.48;;;2.25;;
70253;SDS011;57649;42.968;1.608;2023-08-06T12:39:45;7.00;;;1.88;;
70253;SDS011;57649;42.968;1.608;2023-08-06T12:42:10;6.82;;;1.75;;
70253;SDS011;57649;42.968;1.608;2023-08-06T12:44:36;5.45;;;1.70;;
70253;SDS011;57649;42.968;1.608;2023-08-06T12:47:01;6.57;;;1.77;;
70253;SDS011;57649;42.968;1.608;2023-08-06T12:49:27;5.75;;;2.08;;
70253;SDS011;57649;42.968;1.608;2023-08-06T12:51:53;7.75;;;1.92;;
70253;SDS011;57649;42.968;1.608;2023-08-06T12:54:20;5.45;;;1.40;;
70253;SDS011;57649;42.968;1.608;2023-08-06T12:56:46;8.52;;;1.85;;
70253;SDS011;57649;42.968;1.608;2023-08-06T12:59:13;5.78;;;1.42;;
70253;SDS011;57649;42.968;1.608;2023-08-06T13:01:39;5.20;;;1.40;;
70253;SDS011;57649;42.968;1.608;2023-08-06T13:04:05;5.18;;;1.85;;
70253;SDS011;57649;42.968;1.608;2023-08-06T13:06:30;9.63;;;1.45;;
70253;SDS011;57649;42.968;1.608;2023-08-06T13:09:00;6.80;;;1.63;;
70253;SDS011;57649;42.968;1.608;2023-08-06T13:11:26;6.43;;;1.58;;
70253;SDS011;57649;42.968;1.608;2023-08-06T13:13:51;6.30;;;1.35;;
70253;SDS011;57649;42.968;1.608;2023-08-06T13:16:17;4.93;;;1.60;;
70253;SDS011;57649;42.968;1.608;2023-08-06T13:18:42;8.73;;;1.67;;
70253;SDS011;57649;42.968;1.608;2023-08-06T13:21:07;6.00;;;1.40;;
70253;SDS011;57649;42.968;1.608;2023-08-06T13:23:33;5.45;;;1.95;;
70253;SDS011;57649;42.968;1.608;2023-08-06T13:25:58;5.22;;;1.60;;
70253;SDS011;57649;42.968;1.608;2023-08-06T13:28:24;5.32;;;1.73;;
70253;SDS011;57649;42.968;1.608;2023-08-06T13:30:49;5.53;;;1.50;;
70253;SDS011;57649;42.968;1.608;2023-08-06T13:33:15;7.85;;;1.83;;
70253;SDS011;57649;42.968;1.608;2023-08-06T13:35:40;9.63;;;1.90;;
70253;SDS011;57649;42.968;1.608;2023-08-06T13:38:06;6.60;;;1.70;;
70253;SDS011;57649;42.968;1.608;2023-08-06T13:40:32;4.72;;;1.45;;
70253;SDS011;57649;42.968;1.608;2023-08-06T13:42:59;11.10;;;2.08;;
70253;SDS011;57649;42.968;1.608;2023-08-06T13:45:25;6.95;;;1.58;;
70253;SDS011;57649;42.968;1.608;2023-08-06T13:47:51;6.07;;;1.73;;
70253;SDS011;57649;42.968;1.608;2023-08-06T13:50:16;9.07;;;1.98;;
70253;SDS011;57649;42.968;1.608;2023-08-06T13:52:42;7.32;;;2.03;;
70253;SDS011;57649;42.968;1.608;2023-08-06T13:55:07;6.45;;;1.67;;
70253;SDS011;57649;42.968;1.608;2023-08-06T13:57:36;4.38;;;1.40;;
70253;SDS011;57649;42.968;1.608;2023-08-06T14:00:01;6.53;;;1.60;;
70253;SDS011;57649;42.968;1.608;2023-08-06T14:02:28;7.22;;;1.95;;
70253;SDS011;57649;42.968;1.608;2023-08-06T14:04:54;5.30;;;1.58;;
70253;SDS011;57649;42.968;1.608;2023-08-06T14:07:20;5.88;;;1.50;;
70253;SDS011;57649;42.968;1.608;2023-08-06T14:09:45;6.18;;;1.65;;
70253;SDS011;57649;42.968;1.608;2023-08-06T14:12:12;8.20;;;1.85;;
70253;SDS011;57649;42.968;1.608;2023-08-06T14:14:38;7.03;;;1.45;;
70253;SDS011;57649;42.968;1.608;2023-08-06T14:17:03;11.20;;;2.10;;
70253;SDS011;57649;42.968;1.608;2023-08-06T14:19:29;5.40;;;1.60;;
70253;SDS011;57649;42.968;1.608;2023-08-06T14:21:54;4.63;;;1.42;;
70253;SDS011;57649;42.968;1.608;2023-08-06T14:24:20;5.57;;;1.70;;
70253;SDS011;57649;42.968;1.608;2023-08-06T14:26:46;6.32;;;1.55;;
70253;SDS011;57649;42.968;1.608;2023-08-06T14:29:11;9.45;;;2.03;;
70253;SDS011;57649;42.968;1.608;2023-08-06T14:31:38;6.20;;;2.17;;
70253;SDS011;57649;42.968;1.608;2023-08-06T14:34:04;8.10;;;1.73;;
70253;SDS011;57649;42.968;1.608;2023-08-06T14:36:29;5.28;;;1.58;;
70253;SDS011;57649;42.968;1.608;2023-08-06T14:38:55;5.70;;;1.55;;
70253;SDS011;57649;42.968;1.608;2023-08-06T14:41:20;8.52;;;1.83;;
70253;SDS011;57649;42.968;1.608;2023-08-06T14:43:46;5.47;;;1.52;;
70253;SDS011;57649;42.968;1.608;2023-08-06T14:46:11;8.43;;;1.83;;
70253;SDS011;57649;42.968;1.608;2023-08-06T14:48:37;6.93;;;2.20;;
70253;SDS011;57649;42.968;1.608;2023-08-06T14:51:02;7.15;;;1.70;;
70253;SDS011;57649;42.968;1.608;2023-08-06T14:53:28;6.15;;;1.88;;
70253;SDS011;57649;42.968;1.608;2023-08-06T14:55:53;7.65;;;1.80;;
70253;SDS011;57649;42.968;1.608;2023-08-06T14:58:19;6.10;;;1.73;;